sensor_id;sensor_type;location;lat;lon;timestamp;P1;durP1;ratioP1;P2;durP2;ratioP2
35380;SDS011;21486;51.916;8.378;2022-09-06T00:02:16;8.70;;;4.07;;
35380;SDS011;21486;51.916;8.378;2022-09-06T00:04:43;5.85;;;4.00;;
35380;SDS011;21486;51.916;8.378;2022-09-06T00:07:08;6.15;;;3.67;;
35380;SDS011;21486;51.916;8.378;2022-09-06T00:09:35;16.15;;;3.83;;
35380;SDS011;21486;51.916;8.378;2022-09-06T00:12:01;10.32;;;3.88;;
35380;SDS011;21486;51.916;8.378;2022-09-06T00:14:26;5.15;;;3.72;;
35380;SDS011;21486;51.916;8.378;2022-09-06T00:16:52;9.98;;;3.50;;
35380;SDS011;21486;51.916;8.378;2022-09-06T00:19:19;6.88;;;3.70;;
35380;SDS011;21486;51.916;8.378;2022-09-06T00:21:44;11.25;;;4.43;;
35380;SDS011;21486;51.916;8.378;2022-09-06T00:24:10;9.57;;;3.90;;
35380;SDS011;21486;51.916;8.378;2022-09-06T00:26:36;9.95;;;4.07;;
35380;SDS011;21486;51.916;8.378;2022-09-06T00:29:02;6.13;;;3.78;;
35380;SDS011;21486;51.916;8.378;2022-09-06T00:31:28;7.88;;;3.83;;
35380;SDS011;21486;51.916;8.378;2022-09-06T00:33:54;9.00;;;4.00;;
35380;SDS011;21486;51.916;8.378;2022-09-06T00:36:20;10.73;;;3.30;;
35380;SDS011;21486;51.916;8.378;2022-09-06T00:38:47;4.50;;;3.72;;
35380;SDS011;21486;51.916;8.378;2022-09-06T00:41:13;9.60;;;4.15;;
35380;SDS011;21486;51.916;8.378;2022-09-06T00:43:40;5.28;;;3.50;;
35380;SDS011;21486;51.916;8.378;2022-09-06T00:46:07;6.18;;;3.88;;
35380;SDS011;21486;51.916;8.378;2022-09-06T00:48:33;5.85;;;3.47;;
35380;SDS011;21486;51.916;8.378;2022-09-06T00:51:00;8.30;;;3.63;;
35380;SDS011;21486;51.916;8.378;2022-09-06T00:53:27;7.38;;;3.90;;
35380;SDS011;21486;51.916;8.378;2022-09-06T00:55:55;6.00;;;3.85;;
35380;SDS011;21486;51.916;8.378;2022-09-06T00:58:21;11.00;;;3.42;;
35380;SDS011;21486;51.916;8.378;2022-09-06T01:00:47;5.78;;;3.70;;
35380;SDS011;21486;51.916;8.378;2022-09-06T01:03:13;6.60;;;3.70;;
35380;SDS011;21486;51.916;8.378;2022-09-06T01:05:45;6.95;;;3.40;;
35380;SDS011;21486;51.916;8.378;2022-09-06T01:16:10;5.72;;;3.65;;
35380;SDS011;21486;51.916;8.378;2022-09-06T01:21:09;5.97;;;4.10;;
35380;SDS011;21486;51.916;8.378;2022-09-06T01:28:51;5.25;;;3.70;;
35380;SDS011;21486;51.916;8.378;2022-09-06T01:31:22;4.45;;;3.50;;
35380;SDS011;21486;51.916;8.378;2022-09-06T01:34:06;7.10;;;3.60;;
35380;SDS011;21486;51.916;8.378;2022-09-06T01:36:45;7.10;;;3.85;;
35380;SDS011;21486;51.916;8.378;2022-09-06T01:39:16;6.43;;;3.60;;
35380;SDS011;21486;51.916;8.378;2022-09-06T01:41:45;6.20;;;3.20;;
35380;SDS011;21486;51.916;8.378;2022-09-06T01:44:11;6.13;;;3.83;;
35380;SDS011;21486;51.916;8.378;2022-09-06T01:52:13;7.68;;;3.90;;
35380;SDS011;21486;51.916;8.378;2022-09-06T02:00:20;6.70;;;3.90;;
35380;SDS011;21486;51.916;8.378;2022-09-06T02:05:35;7.97;;;3.70;;
35380;SDS011;21486;51.916;8.378;2022-09-06T02:08:10;8.20;;;4.00;;
35380;SDS011;21486;51.916;8.378;2022-09-06T02:10:51;9.75;;;4.63;;
35380;SDS011;21486;51.916;8.378;2022-09-06T02:13:21;5.90;;;4.28;;
35380;SDS011;21486;51.916;8.378;2022-09-06T02:15:53;4.97;;;3.85;;
35380;SDS011;21486;51.916;8.378;2022-09-06T02:18:30;12.60;;;4.45;;
35380;SDS011;21486;51.916;8.378;2022-09-06T02:21:09;6.18;;;3.60;;
35380;SDS011;21486;51.916;8.378;2022-09-06T02:23:39;5.63;;;3.95;;
35380;SDS011;21486;51.916;8.378;2022-09-06T02:26:08;8.75;;;4.15;;
35380;SDS011;21486;51.916;8.378;2022-09-06T02:28:42;6.68;;;3.90;;
35380;SDS011;21486;51.916;8.378;2022-09-06T02:31:18;5.25;;;3.85;;
35380;SDS011;21486;51.916;8.378;2022-09-06T02:33:48;7.43;;;4.05;;
35380;SDS011;21486;51.916;8.378;2022-09-06T02:36:16;5.63;;;4.07;;
35380;SDS011;21486;51.916;8.378;2022-09-06T02:38:42;9.38;;;4.43;;
35380;SDS011;21486;51.916;8.378;2022-09-06T02:41:09;4.82;;;3.83;;
35380;SDS011;21486;51.916;8.378;2022-09-06T02:43:35;6.38;;;3.58;;
35380;SDS011;21486;51.916;8.378;2022-09-06T02:46:01;8.85;;;4.00;;
35380;SDS011;21486;51.916;8.378;2022-09-06T02:48:26;6.72;;;3.63;;
35380;SDS011;21486;51.916;8.378;2022-09-06T02:50:52;9.13;;;3.83;;
35380;SDS011;21486;51.916;8.378;2022-09-06T02:53:18;5.70;;;3.90;;
35380;SDS011;21486;51.916;8.378;2022-09-06T02:55:47;6.57;;;3.88;;
35380;SDS011;21486;51.916;8.378;2022-09-06T02:58:12;4.45;;;3.70;;
35380;SDS011;21486;51.916;8.378;2022-09-06T03:00:39;6.25;;;3.75;;
35380;SDS011;21486;51.916;8.378;2022-09-06T03:03:05;4.70;;;3.83;;
35380;SDS011;21486;51.916;8.378;2022-09-06T03:05:31;6.55;;;3.53;;
35380;SDS011;21486;51.916;8.378;2022-09-06T03:07:57;6.32;;;4.25;;
35380;SDS011;21486;51.916;8.378;2022-09-06T03:10:23;4.85;;;3.90;;
35380;SDS011;21486;51.916;8.378;2022-09-06T03:12:50;5.82;;;4.32;;
35380;SDS011;21486;51.916;8.378;2022-09-06T03:15:16;6.10;;;3.60;;
35380;SDS011;21486;51.916;8.378;2022-09-06T03:17:42;8.13;;;4.00;;
35380;SDS011;21486;51.916;8.378;2022-09-06T03:20:09;5.65;;;4.32;;
35380;SDS011;21486;51.916;8.378;2022-09-06T03:22:35;4.78;;;3.90;;
35380;SDS011;21486;51.916;8.378;2022-09-06T03:25:01;5.50;;;3.92;;
35380;SDS011;21486;51.916;8.378;2022-09-06T03:27:27;5.32;;;4.00;;
35380;SDS011;21486;51.916;8.378;2022-09-06T03:29:53;8.63;;;4.15;;
35380;SDS011;21486;51.916;8.378;2022-09-06T03:32:19;5.50;;;3.83;;
35380;SDS011;21486;51.916;8.378;2022-09-06T03:34:45;5.80;;;3.90;;
35380;SDS011;21486;51.916;8.378;2022-09-06T03:37:11;6.75;;;4.40;;
35380;SDS011;21486;51.916;8.378;2022-09-06T03:39:37;4.97;;;4.47;;
35380;SDS011;21486;51.916;8.378;2022-09-06T03:42:03;5.20;;;4.10;;
35380;SDS011;21486;51.916;8.378;2022-09-06T03:44:29;6.20;;;4.40;;
35380;SDS011;21486;51.916;8.378;2022-09-06T03:46:55;7.53;;;4.13;;
35380;SDS011;21486;51.916;8.378;2022-09-06T03:49:21;6.28;;;4.18;;
35380;SDS011;21486;51.916;8.378;2022-09-06T03:51:47;8.80;;;4.65;;
35380;SDS011;21486;51.916;8.378;2022-09-06T03:54:13;8.13;;;4.15;;
35380;SDS011;21486;51.916;8.378;2022-09-06T03:56:39;6.50;;;4.50;;
35380;SDS011;21486;51.916;8.378;2022-09-06T03:59:05;4.75;;;4.03;;
35380;SDS011;21486;51.916;8.378;2022-09-06T04:01:31;5.13;;;4.03;;
35380;SDS011;21486;51.916;8.378;2022-09-06T04:03:57;6.80;;;3.95;;
35380;SDS011;21486;51.916;8.378;2022-09-06T04:06:25;6.70;;;4.50;;
35380;SDS011;21486;51.916;8.378;2022-09-06T04:08:51;9.15;;;4.60;;
35380;SDS011;21486;51.916;8.378;2022-09-06T04:11:17;8.32;;;4.63;;
35380;SDS011;21486;51.916;8.378;2022-09-06T04:13:43;10.25;;;4.65;;
35380;SDS011;21486;51.916;8.378;2022-09-06T04:16:09;11.90;;;5.15;;
35380;SDS011;21486;51.916;8.378;2022-09-06T04:18:35;6.80;;;4.47;;
35380;SDS011;21486;51.916;8.378;2022-09-06T04:21:01;8.57;;;4.72;;
35380;SDS011;21486;51.916;8.378;2022-09-06T04:23:27;9.43;;;5.55;;
35380;SDS011;21486;51.916;8.378;2022-09-06T04:25:54;12.27;;;5.43;;
35380;SDS011;21486;51.916;8.378;2022-09-06T04:28:21;9.98;;;4.45;;
35380;SDS011;21486;51.916;8.378;2022-09-06T04:30:54;5.72;;;4.18;;
35380;SDS011;21486;51.916;8.378;2022-09-06T04:33:21;12.60;;;4.57;;
35380;SDS011;21486;51.916;8.378;2022-09-06T04:35:50;7.05;;;4.53;;
35380;SDS011;21486;51.916;8.378;2022-09-06T04:38:16;7.72;;;4.35;;
35380;SDS011;21486;51.916;8.378;2022-09-06T04:40:42;12.15;;;4.53;;
35380;SDS011;21486;51.916;8.378;2022-09-06T04:43:07;8.77;;;4.68;;
35380;SDS011;21486;51.916;8.378;2022-09-06T04:45:33;9.40;;;4.68;;
35380;SDS011;21486;51.916;8.378;2022-09-06T04:47:59;6.20;;;4.10;;
35380;SDS011;21486;51.916;8.378;2022-09-06T04:50:25;9.13;;;4.93;;
35380;SDS011;21486;51.916;8.378;2022-09-06T04:52:51;5.57;;;4.53;;
35380;SDS011;21486;51.916;8.378;2022-09-06T04:55:17;6.45;;;4.18;;
35380;SDS011;21486;51.916;8.378;2022-09-06T04:57:43;7.68;;;4.65;;
35380;SDS011;21486;51.916;8.378;2022-09-06T05:00:09;8.10;;;4.63;;
35380;SDS011;21486;51.916;8.378;2022-09-06T05:02:35;8.48;;;4.72;;
35380;SDS011;21486;51.916;8.378;2022-09-06T05:05:01;4.65;;;4.00;;
35380;SDS011;21486;51.916;8.378;2022-09-06T05:07:28;9.48;;;4.57;;
35380;SDS011;21486;51.916;8.378;2022-09-06T05:09:54;9.05;;;4.65;;
35380;SDS011;21486;51.916;8.378;2022-09-06T05:12:21;17.75;;;4.75;;
35380;SDS011;21486;51.916;8.378;2022-09-06T05:14:47;8.05;;;4.53;;
35380;SDS011;21486;51.916;8.378;2022-09-06T05:17:13;8.60;;;4.93;;
35380;SDS011;21486;51.916;8.378;2022-09-06T05:19:39;6.90;;;4.60;;
35380;SDS011;21486;51.916;8.378;2022-09-06T05:22:05;7.45;;;4.60;;
35380;SDS011;21486;51.916;8.378;2022-09-06T05:24:31;7.35;;;4.85;;
35380;SDS011;21486;51.916;8.378;2022-09-06T05:26:57;6.68;;;5.07;;
35380;SDS011;21486;51.916;8.378;2022-09-06T05:29:27;7.40;;;4.43;;
35380;SDS011;21486;51.916;8.378;2022-09-06T05:31:53;7.95;;;4.45;;
35380;SDS011;21486;51.916;8.378;2022-09-06T05:34:19;6.95;;;4.45;;
35380;SDS011;21486;51.916;8.378;2022-09-06T05:36:45;9.18;;;4.97;;
35380;SDS011;21486;51.916;8.378;2022-09-06T05:39:11;14.27;;;5.53;;
35380;SDS011;21486;51.916;8.378;2022-09-06T05:41:37;5.18;;;4.32;;
35380;SDS011;21486;51.916;8.378;2022-09-06T05:44:03;8.38;;;4.72;;
35380;SDS011;21486;51.916;8.378;2022-09-06T05:46:29;6.72;;;4.75;;
35380;SDS011;21486;51.916;8.378;2022-09-06T05:48:56;9.00;;;4.88;;
35380;SDS011;21486;51.916;8.378;2022-09-06T05:51:25;13.18;;;5.15;;
35380;SDS011;21486;51.916;8.378;2022-09-06T05:53:51;10.43;;;4.85;;
35380;SDS011;21486;51.916;8.378;2022-09-06T05:56:17;8.38;;;4.88;;
35380;SDS011;21486;51.916;8.378;2022-09-06T05:58:43;8.27;;;4.38;;
35380;SDS011;21486;51.916;8.378;2022-09-06T06:01:14;9.77;;;5.07;;
35380;SDS011;21486;51.916;8.378;2022-09-06T06:03:40;12.00;;;4.20;;
35380;SDS011;21486;51.916;8.378;2022-09-06T06:06:07;9.77;;;4.70;;
35380;SDS011;21486;51.916;8.378;2022-09-06T06:08:34;6.15;;;4.22;;
35380;SDS011;21486;51.916;8.378;2022-09-06T06:11:00;12.60;;;4.85;;
35380;SDS011;21486;51.916;8.378;2022-09-06T06:13:26;8.75;;;4.57;;
35380;SDS011;21486;51.916;8.378;2022-09-06T06:15:54;6.53;;;4.50;;
35380;SDS011;21486;51.916;8.378;2022-09-06T06:18:20;8.00;;;4.95;;
35380;SDS011;21486;51.916;8.378;2022-09-06T06:20:47;8.15;;;4.90;;
35380;SDS011;21486;51.916;8.378;2022-09-06T06:23:13;11.10;;;4.88;;
35380;SDS011;21486;51.916;8.378;2022-09-06T06:25:39;9.52;;;4.75;;
35380;SDS011;21486;51.916;8.378;2022-09-06T06:28:05;9.30;;;5.10;;
35380;SDS011;21486;51.916;8.378;2022-09-06T06:30:31;13.27;;;5.28;;
35380;SDS011;21486;51.916;8.378;2022-09-06T06:32:57;7.43;;;4.35;;
35380;SDS011;21486;51.916;8.378;2022-09-06T06:35:24;11.93;;;4.65;;
35380;SDS011;21486;51.916;8.378;2022-09-06T06:37:50;12.40;;;4.82;;
35380;SDS011;21486;51.916;8.378;2022-09-06T06:40:16;15.18;;;5.05;;
35380;SDS011;21486;51.916;8.378;2022-09-06T06:42:42;11.68;;;4.65;;
35380;SDS011;21486;51.916;8.378;2022-09-06T06:45:08;6.70;;;4.90;;
35380;SDS011;21486;51.916;8.378;2022-09-06T06:47:34;10.77;;;4.60;;
35380;SDS011;21486;51.916;8.378;2022-09-06T06:50:00;13.23;;;5.88;;
35380;SDS011;21486;51.916;8.378;2022-09-06T06:52:26;7.25;;;4.50;;
35380;SDS011;21486;51.916;8.378;2022-09-06T06:54:52;12.32;;;5.82;;
35380;SDS011;21486;51.916;8.378;2022-09-06T06:57:18;9.82;;;5.15;;
35380;SDS011;21486;51.916;8.378;2022-09-06T06:59:44;7.47;;;5.53;;
35380;SDS011;21486;51.916;8.378;2022-09-06T07:16:47;13.45;;;5.05;;
35380;SDS011;21486;51.916;8.378;2022-09-06T07:19:13;18.38;;;5.38;;
35380;SDS011;21486;51.916;8.378;2022-09-06T07:21:39;11.57;;;4.90;;
35380;SDS011;21486;51.916;8.378;2022-09-06T07:24:05;12.05;;;5.07;;
35380;SDS011;21486;51.916;8.378;2022-09-06T07:26:31;8.32;;;5.03;;
35380;SDS011;21486;51.916;8.378;2022-09-06T07:29:00;12.38;;;5.03;;
35380;SDS011;21486;51.916;8.378;2022-09-06T07:31:27;13.45;;;5.00;;
35380;SDS011;21486;51.916;8.378;2022-09-06T07:33:53;21.13;;;5.25;;
35380;SDS011;21486;51.916;8.378;2022-09-06T07:36:19;5.97;;;4.43;;
35380;SDS011;21486;51.916;8.378;2022-09-06T07:38:48;9.55;;;4.38;;
35380;SDS011;21486;51.916;8.378;2022-09-06T07:41:15;16.67;;;4.90;;
35380;SDS011;21486;51.916;8.378;2022-09-06T07:43:44;14.70;;;5.68;;
35380;SDS011;21486;51.916;8.378;2022-09-06T07:46:11;13.98;;;5.43;;
35380;SDS011;21486;51.916;8.378;2022-09-06T07:48:38;12.95;;;5.65;;
35380;SDS011;21486;51.916;8.378;2022-09-06T07:51:06;8.13;;;5.28;;
35380;SDS011;21486;51.916;8.378;2022-09-06T07:53:32;12.15;;;6.10;;
35380;SDS011;21486;51.916;8.378;2022-09-06T07:55:59;9.60;;;6.30;;
35380;SDS011;21486;51.916;8.378;2022-09-06T07:58:25;11.43;;;5.97;;
35380;SDS011;21486;51.916;8.378;2022-09-06T08:00:51;16.98;;;6.35;;
35380;SDS011;21486;51.916;8.378;2022-09-06T08:03:17;9.57;;;5.65;;
35380;SDS011;21486;51.916;8.378;2022-09-06T08:05:47;9.05;;;5.97;;
35380;SDS011;21486;51.916;8.378;2022-09-06T08:08:13;10.48;;;5.28;;
35380;SDS011;21486;51.916;8.378;2022-09-06T08:10:38;11.48;;;6.00;;
35380;SDS011;21486;51.916;8.378;2022-09-06T08:13:04;13.57;;;5.68;;
35380;SDS011;21486;51.916;8.378;2022-09-06T08:15:30;14.77;;;5.63;;
35380;SDS011;21486;51.916;8.378;2022-09-06T08:17:57;11.25;;;6.05;;
35380;SDS011;21486;51.916;8.378;2022-09-06T08:20:23;8.70;;;5.47;;
35380;SDS011;21486;51.916;8.378;2022-09-06T08:22:48;11.85;;;5.53;;
35380;SDS011;21486;51.916;8.378;2022-09-06T08:25:14;11.25;;;5.55;;
35380;SDS011;21486;51.916;8.378;2022-09-06T08:27:40;8.57;;;5.28;;
35380;SDS011;21486;51.916;8.378;2022-09-06T08:30:08;11.90;;;6.18;;
35380;SDS011;21486;51.916;8.378;2022-09-06T08:32:34;11.10;;;5.95;;
35380;SDS011;21486;51.916;8.378;2022-09-06T08:35:02;12.95;;;4.85;;
35380;SDS011;21486;51.916;8.378;2022-09-06T08:37:28;8.65;;;4.80;;
35380;SDS011;21486;51.916;8.378;2022-09-06T08:39:54;12.80;;;4.97;;
35380;SDS011;21486;51.916;8.378;2022-09-06T08:42:20;11.65;;;5.60;;
35380;SDS011;21486;51.916;8.378;2022-09-06T08:49:41;14.38;;;4.35;;
35380;SDS011;21486;51.916;8.378;2022-09-06T08:52:17;11.25;;;4.45;;
35380;SDS011;21486;51.916;8.378;2022-09-06T08:54:52;10.38;;;4.10;;
35380;SDS011;21486;51.916;8.378;2022-09-06T08:59:53;8.93;;;4.53;;
35380;SDS011;21486;51.916;8.378;2022-09-06T09:02:21;7.10;;;4.07;;
35380;SDS011;21486;51.916;8.378;2022-09-06T09:04:51;9.20;;;4.07;;
35380;SDS011;21486;51.916;8.378;2022-09-06T09:09:44;11.68;;;4.20;;
35380;SDS011;21486;51.916;8.378;2022-09-06T09:12:10;9.13;;;3.88;;
35380;SDS011;21486;51.916;8.378;2022-09-06T09:14:39;6.22;;;3.85;;
35380;SDS011;21486;51.916;8.378;2022-09-06T09:17:11;12.35;;;3.60;;
35380;SDS011;21486;51.916;8.378;2022-09-06T09:19:40;10.38;;;3.80;;
35380;SDS011;21486;51.916;8.378;2022-09-06T09:22:06;10.68;;;3.22;;
35380;SDS011;21486;51.916;8.378;2022-09-06T09:24:33;6.50;;;3.28;;
35380;SDS011;21486;51.916;8.378;2022-09-06T09:27:04;7.40;;;3.33;;
35380;SDS011;21486;51.916;8.378;2022-09-06T09:29:32;10.32;;;3.03;;
35380;SDS011;21486;51.916;8.378;2022-09-06T09:32:31;11.20;;;2.97;;
35380;SDS011;21486;51.916;8.378;2022-09-06T09:37:42;6.23;;;2.70;;
35380;SDS011;21486;51.916;8.378;2022-09-06T09:40:16;6.27;;;2.50;;
35380;SDS011;21486;51.916;8.378;2022-09-06T09:42:52;7.25;;;2.35;;
35380;SDS011;21486;51.916;8.378;2022-09-06T09:45:23;4.95;;;2.70;;
35380;SDS011;21486;51.916;8.378;2022-09-06T09:47:55;6.30;;;2.55;;
35380;SDS011;21486;51.916;8.378;2022-09-06T09:50:23;3.85;;;2.30;;
35380;SDS011;21486;51.916;8.378;2022-09-06T09:52:49;6.55;;;2.15;;
35380;SDS011;21486;51.916;8.378;2022-09-06T09:55:14;4.45;;;2.20;;
35380;SDS011;21486;51.916;8.378;2022-09-06T09:57:43;5.83;;;2.03;;
35380;SDS011;21486;51.916;8.378;2022-09-06T10:00:11;8.48;;;2.30;;
35380;SDS011;21486;51.916;8.378;2022-09-06T10:02:38;4.25;;;2.13;;
35380;SDS011;21486;51.916;8.378;2022-09-06T10:07:44;9.93;;;2.72;;
35380;SDS011;21486;51.916;8.378;2022-09-06T10:10:25;5.97;;;2.10;;
35380;SDS011;21486;51.916;8.378;2022-09-06T10:15:53;4.82;;;1.77;;
35380;SDS011;21486;51.916;8.378;2022-09-06T10:20:49;6.00;;;1.90;;
35380;SDS011;21486;51.916;8.378;2022-09-06T10:23:40;5.00;;;1.77;;
35380;SDS011;21486;51.916;8.378;2022-09-06T10:26:17;6.60;;;2.20;;
35380;SDS011;21486;51.916;8.378;2022-09-06T10:28:57;3.65;;;1.70;;
35380;SDS011;21486;51.916;8.378;2022-09-06T10:31:40;5.20;;;1.70;;
35380;SDS011;21486;51.916;8.378;2022-09-06T10:34:28;4.88;;;1.75;;
35380;SDS011;21486;51.916;8.378;2022-09-06T10:45:26;5.13;;;1.45;;
35380;SDS011;21486;51.916;8.378;2022-09-06T10:50:19;4.70;;;1.60;;
35380;SDS011;21486;51.916;8.378;2022-09-06T10:52:49;4.05;;;1.55;;
35380;SDS011;21486;51.916;8.378;2022-09-06T10:55:16;3.20;;;1.30;;
35380;SDS011;21486;51.916;8.378;2022-09-06T10:57:44;1.97;;;1.17;;
35380;SDS011;21486;51.916;8.378;2022-09-06T11:00:15;2.53;;;1.20;;
35380;SDS011;21486;51.916;8.378;2022-09-06T11:02:53;6.20;;;1.40;;
35380;SDS011;21486;51.916;8.378;2022-09-06T11:05:34;13.40;;;1.60;;
35380;SDS011;21486;51.916;8.378;2022-09-06T11:08:08;3.03;;;1.30;;
35380;SDS011;21486;51.916;8.378;2022-09-06T11:10:40;3.95;;;1.35;;
35380;SDS011;21486;51.916;8.378;2022-09-06T11:26:23;2.60;;;1.40;;
35380;SDS011;21486;51.916;8.378;2022-09-06T23:17:45;7.65;;;4.32;;
35380;SDS011;21486;51.916;8.378;2022-09-06T23:20:11;8.65;;;4.57;;
35380;SDS011;21486;51.916;8.378;2022-09-06T23:22:38;7.18;;;5.13;;
35380;SDS011;21486;51.916;8.378;2022-09-06T23:25:04;11.05;;;5.18;;
35380;SDS011;21486;51.916;8.378;2022-09-06T23:27:31;16.40;;;4.97;;
35380;SDS011;21486;51.916;8.378;2022-09-06T23:29:57;10.82;;;5.22;;
35380;SDS011;21486;51.916;8.378;2022-09-06T23:32:24;14.90;;;4.72;;
35380;SDS011;21486;51.916;8.378;2022-09-06T23:34:51;13.25;;;5.03;;
35380;SDS011;21486;51.916;8.378;2022-09-06T23:37:17;11.15;;;5.10;;
35380;SDS011;21486;51.916;8.378;2022-09-06T23:39:43;11.05;;;4.60;;
35380;SDS011;21486;51.916;8.378;2022-09-06T23:42:09;17.85;;;4.50;;
35380;SDS011;21486;51.916;8.378;2022-09-06T23:44:35;7.00;;;3.90;;
35380;SDS011;21486;51.916;8.378;2022-09-06T23:47:01;7.53;;;4.90;;
35380;SDS011;21486;51.916;8.378;2022-09-06T23:49:27;11.20;;;4.93;;
35380;SDS011;21486;51.916;8.378;2022-09-06T23:51:53;7.60;;;4.97;;
35380;SDS011;21486;51.916;8.378;2022-09-06T23:54:19;11.45;;;4.55;;
35380;SDS011;21486;51.916;8.378;2022-09-06T23:56:45;9.00;;;4.82;;
35380;SDS011;21486;51.916;8.378;2022-09-06T23:59:11;10.00;;;5.30;;
